Milwaukee, Wisconsin
Traffic Map
Current Weather Conditions
Milwaukee, Wisconsin
Few Clouds
Few Clouds

Feels Like: 5°
Wind Chill: Ceiling: Unl
Heat Index: Visibility: 10mi
Dew Point: Wind: 6mph
Humidity: 76% Direction: 120° (ESE)
Pressure: 30.27in Gusts: 0mph
Raw Report DataKMKE 222352Z 12005KT 10SM FEW250 07/03 A3027 RMK AO2 SLP257 T00670028 10111 20067 56013
Traffic Incident Summary
Active as of:
Severity:
Category:
InformationThere was an issue retrieving the traffic information for this location. Please try a different location or try again shortly.
Advertisements
Track Severe Weather on mobile